sensor_id;sensor_type;location;lat;lon;timestamp;P1;durP1;ratioP1;P2;durP2;ratioP2
41263;SDS011;26998;48.714;9.414;2022-07-17T00:01:15;6.05;;;3.92;;
41263;SDS011;26998;48.714;9.414;2022-07-17T00:03:41;4.18;;;3.70;;
41263;SDS011;26998;48.714;9.414;2022-07-17T00:06:08;6.15;;;4.13;;
41263;SDS011;26998;48.714;9.414;2022-07-17T00:08:34;5.78;;;4.30;;
41263;SDS011;26998;48.714;9.414;2022-07-17T00:11:01;4.70;;;3.50;;
41263;SDS011;26998;48.714;9.414;2022-07-17T00:13:28;5.53;;;3.95;;
41263;SDS011;26998;48.714;9.414;2022-07-17T00:15:54;5.40;;;4.40;;
41263;SDS011;26998;48.714;9.414;2022-07-17T00:18:21;5.90;;;3.90;;
41263;SDS011;26998;48.714;9.414;2022-07-17T00:20:47;5.82;;;4.03;;
41263;SDS011;26998;48.714;9.414;2022-07-17T00:23:14;7.90;;;4.20;;
41263;SDS011;26998;48.714;9.414;2022-07-17T00:25:40;4.20;;;3.80;;
41263;SDS011;26998;48.714;9.414;2022-07-17T00:28:07;5.75;;;4.30;;
41263;SDS011;26998;48.714;9.414;2022-07-17T00:30:33;5.57;;;4.07;;
41263;SDS011;26998;48.714;9.414;2022-07-17T00:33:00;5.40;;;4.30;;
41263;SDS011;26998;48.714;9.414;2022-07-17T00:35:27;5.03;;;3.60;;
41263;SDS011;26998;48.714;9.414;2022-07-17T00:37:53;6.05;;;4.00;;
41263;SDS011;26998;48.714;9.414;2022-07-17T00:40:21;4.35;;;3.80;;
41263;SDS011;26998;48.714;9.414;2022-07-17T00:42:48;7.78;;;5.05;;
41263;SDS011;26998;48.714;9.414;2022-07-17T00:45:15;11.57;;;4.78;;
41263;SDS011;26998;48.714;9.414;2022-07-17T00:47:50;5.53;;;4.03;;
41263;SDS011;26998;48.714;9.414;2022-07-17T00:50:20;11.65;;;5.10;;
41263;SDS011;26998;48.714;9.414;2022-07-17T00:52:48;5.75;;;4.35;;
41263;SDS011;26998;48.714;9.414;2022-07-17T00:55:14;6.72;;;4.57;;
41263;SDS011;26998;48.714;9.414;2022-07-17T00:58:03;4.53;;;4.05;;
41263;SDS011;26998;48.714;9.414;2022-07-17T01:00:30;5.35;;;4.45;;
41263;SDS011;26998;48.714;9.414;2022-07-17T01:02:57;6.70;;;4.15;;
41263;SDS011;26998;48.714;9.414;2022-07-17T01:05:23;5.15;;;3.90;;
41263;SDS011;26998;48.714;9.414;2022-07-17T01:07:51;4.57;;;4.18;;
41263;SDS011;26998;48.714;9.414;2022-07-17T01:10:18;6.03;;;4.10;;
41263;SDS011;26998;48.714;9.414;2022-07-17T01:12:45;5.93;;;3.95;;
41263;SDS011;26998;48.714;9.414;2022-07-17T01:15:13;5.13;;;4.10;;
41263;SDS011;26998;48.714;9.414;2022-07-17T01:17:40;4.88;;;4.40;;
41263;SDS011;26998;48.714;9.414;2022-07-17T01:20:08;6.95;;;4.78;;
41263;SDS011;26998;48.714;9.414;2022-07-17T01:22:40;6.70;;;4.75;;
41263;SDS011;26998;48.714;9.414;2022-07-17T01:25:10;6.78;;;4.60;;
41263;SDS011;26998;48.714;9.414;2022-07-17T01:27:37;5.05;;;4.15;;
41263;SDS011;26998;48.714;9.414;2022-07-17T01:30:04;6.95;;;4.30;;
41263;SDS011;26998;48.714;9.414;2022-07-17T01:32:34;4.72;;;4.30;;
41263;SDS011;26998;48.714;9.414;2022-07-17T01:35:02;7.03;;;4.93;;
41263;SDS011;26998;48.714;9.414;2022-07-17T01:37:29;8.70;;;4.30;;
41263;SDS011;26998;48.714;9.414;2022-07-17T01:39:57;4.57;;;3.88;;
41263;SDS011;26998;48.714;9.414;2022-07-17T01:42:24;10.65;;;5.45;;
41263;SDS011;26998;48.714;9.414;2022-07-17T01:44:52;4.40;;;4.00;;
41263;SDS011;26998;48.714;9.414;2022-07-17T01:47:20;4.47;;;3.63;;
41263;SDS011;26998;48.714;9.414;2022-07-17T01:49:49;5.70;;;4.47;;
41263;SDS011;26998;48.714;9.414;2022-07-17T01:52:22;5.05;;;3.92;;
41263;SDS011;26998;48.714;9.414;2022-07-17T01:54:50;4.43;;;4.03;;
41263;SDS011;26998;48.714;9.414;2022-07-17T01:57:17;6.57;;;4.10;;
41263;SDS011;26998;48.714;9.414;2022-07-17T01:59:44;4.35;;;3.83;;
41263;SDS011;26998;48.714;9.414;2022-07-17T02:02:12;4.85;;;4.30;;
41263;SDS011;26998;48.714;9.414;2022-07-17T02:04:40;7.25;;;4.88;;
41263;SDS011;26998;48.714;9.414;2022-07-17T02:07:06;6.32;;;4.82;;
41263;SDS011;26998;48.714;9.414;2022-07-17T02:09:34;4.93;;;4.50;;
41263;SDS011;26998;48.714;9.414;2022-07-17T02:12:01;6.22;;;5.40;;
41263;SDS011;26998;48.714;9.414;2022-07-17T02:14:28;4.97;;;4.57;;
41263;SDS011;26998;48.714;9.414;2022-07-17T02:16:56;6.25;;;4.63;;
41263;SDS011;26998;48.714;9.414;2022-07-17T02:19:22;6.85;;;5.57;;
41263;SDS011;26998;48.714;9.414;2022-07-17T02:21:49;5.38;;;4.88;;
41263;SDS011;26998;48.714;9.414;2022-07-17T02:24:15;8.65;;;5.85;;
41263;SDS011;26998;48.714;9.414;2022-07-17T02:26:42;9.23;;;5.20;;
41263;SDS011;26998;48.714;9.414;2022-07-17T02:29:08;7.60;;;4.93;;
41263;SDS011;26998;48.714;9.414;2022-07-17T02:31:35;6.03;;;5.22;;
41263;SDS011;26998;48.714;9.414;2022-07-17T02:34:01;6.65;;;5.30;;
41263;SDS011;26998;48.714;9.414;2022-07-17T02:36:28;8.90;;;5.50;;
41263;SDS011;26998;48.714;9.414;2022-07-17T02:38:54;7.38;;;5.43;;
41263;SDS011;26998;48.714;9.414;2022-07-17T02:41:23;9.13;;;5.05;;
41263;SDS011;26998;48.714;9.414;2022-07-17T02:43:50;7.53;;;5.00;;
41263;SDS011;26998;48.714;9.414;2022-07-17T02:46:16;5.80;;;4.82;;
41263;SDS011;26998;48.714;9.414;2022-07-17T02:48:43;7.32;;;5.25;;
41263;SDS011;26998;48.714;9.414;2022-07-17T02:51:10;7.95;;;5.63;;
41263;SDS011;26998;48.714;9.414;2022-07-17T02:53:36;6.97;;;5.00;;
41263;SDS011;26998;48.714;9.414;2022-07-17T02:56:04;5.57;;;4.25;;
41263;SDS011;26998;48.714;9.414;2022-07-17T02:58:31;5.55;;;4.72;;
41263;SDS011;26998;48.714;9.414;2022-07-17T03:00:57;6.50;;;5.22;;
41263;SDS011;26998;48.714;9.414;2022-07-17T03:03:24;6.00;;;5.13;;
41263;SDS011;26998;48.714;9.414;2022-07-17T03:05:51;5.10;;;4.40;;
41263;SDS011;26998;48.714;9.414;2022-07-17T03:08:17;7.05;;;4.55;;
41263;SDS011;26998;48.714;9.414;2022-07-17T03:10:44;5.40;;;4.70;;
41263;SDS011;26998;48.714;9.414;2022-07-17T03:13:10;5.15;;;4.65;;
41263;SDS011;26998;48.714;9.414;2022-07-17T03:15:36;4.88;;;4.43;;
41263;SDS011;26998;48.714;9.414;2022-07-17T03:18:03;4.88;;;4.38;;
41263;SDS011;26998;48.714;9.414;2022-07-17T03:20:29;6.50;;;4.88;;
41263;SDS011;26998;48.714;9.414;2022-07-17T03:22:56;9.15;;;5.15;;
41263;SDS011;26998;48.714;9.414;2022-07-17T03:25:23;6.43;;;5.00;;
41263;SDS011;26998;48.714;9.414;2022-07-17T03:27:49;5.95;;;4.88;;
41263;SDS011;26998;48.714;9.414;2022-07-17T03:30:15;5.75;;;5.18;;
41263;SDS011;26998;48.714;9.414;2022-07-17T03:32:42;7.38;;;5.63;;
41263;SDS011;26998;48.714;9.414;2022-07-17T03:35:08;5.45;;;4.90;;
41263;SDS011;26998;48.714;9.414;2022-07-17T03:37:35;6.05;;;4.68;;
41263;SDS011;26998;48.714;9.414;2022-07-17T03:40:01;6.60;;;4.85;;
41263;SDS011;26998;48.714;9.414;2022-07-17T03:42:27;6.38;;;4.93;;
41263;SDS011;26998;48.714;9.414;2022-07-17T03:44:54;5.90;;;5.20;;
41263;SDS011;26998;48.714;9.414;2022-07-17T03:47:20;5.72;;;4.80;;
41263;SDS011;26998;48.714;9.414;2022-07-17T03:49:47;6.00;;;5.03;;
41263;SDS011;26998;48.714;9.414;2022-07-17T03:52:13;7.60;;;5.15;;
41263;SDS011;26998;48.714;9.414;2022-07-17T03:54:39;5.70;;;4.63;;
41263;SDS011;26998;48.714;9.414;2022-07-17T03:57:06;8.93;;;5.25;;
41263;SDS011;26998;48.714;9.414;2022-07-17T03:59:33;6.15;;;5.22;;
41263;SDS011;26998;48.714;9.414;2022-07-17T04:01:59;5.38;;;4.50;;
41263;SDS011;26998;48.714;9.414;2022-07-17T04:04:26;9.00;;;5.43;;
41263;SDS011;26998;48.714;9.414;2022-07-17T04:06:52;6.10;;;4.93;;
41263;SDS011;26998;48.714;9.414;2022-07-17T04:09:18;6.43;;;4.75;;
41263;SDS011;26998;48.714;9.414;2022-07-17T04:11:45;5.95;;;4.50;;
41263;SDS011;26998;48.714;9.414;2022-07-17T04:14:11;7.35;;;5.38;;
41263;SDS011;26998;48.714;9.414;2022-07-17T04:16:37;9.38;;;5.72;;
41263;SDS011;26998;48.714;9.414;2022-07-17T04:19:04;7.45;;;5.93;;
41263;SDS011;26998;48.714;9.414;2022-07-17T04:21:30;9.27;;;5.45;;
41263;SDS011;26998;48.714;9.414;2022-07-17T04:23:57;9.02;;;5.47;;
41263;SDS011;26998;48.714;9.414;2022-07-17T04:26:23;7.55;;;5.68;;
41263;SDS011;26998;48.714;9.414;2022-07-17T04:28:49;6.75;;;4.97;;
41263;SDS011;26998;48.714;9.414;2022-07-17T04:31:16;8.65;;;5.28;;
41263;SDS011;26998;48.714;9.414;2022-07-17T04:33:43;8.80;;;5.32;;
41263;SDS011;26998;48.714;9.414;2022-07-17T04:36:09;7.30;;;5.75;;
41263;SDS011;26998;48.714;9.414;2022-07-17T04:38:36;5.35;;;4.93;;
41263;SDS011;26998;48.714;9.414;2022-07-17T04:41:02;6.35;;;5.28;;
41263;SDS011;26998;48.714;9.414;2022-07-17T04:43:28;6.97;;;6.13;;
41263;SDS011;26998;48.714;9.414;2022-07-17T04:45:55;7.65;;;4.75;;
41263;SDS011;26998;48.714;9.414;2022-07-17T04:48:21;5.80;;;4.95;;
41263;SDS011;26998;48.714;9.414;2022-07-17T04:50:48;5.32;;;4.72;;
41263;SDS011;26998;48.714;9.414;2022-07-17T04:53:14;5.05;;;4.55;;
41263;SDS011;26998;48.714;9.414;2022-07-17T04:55:48;7.00;;;4.90;;
41263;SDS011;26998;48.714;9.414;2022-07-17T04:58:14;4.30;;;3.90;;
41263;SDS011;26998;48.714;9.414;2022-07-17T05:00:41;4.43;;;4.03;;
41263;SDS011;26998;48.714;9.414;2022-07-17T05:03:07;8.32;;;3.90;;
41263;SDS011;26998;48.714;9.414;2022-07-17T05:05:34;4.88;;;3.97;;
41263;SDS011;26998;48.714;9.414;2022-07-17T05:08:00;9.32;;;4.50;;
41263;SDS011;26998;48.714;9.414;2022-07-17T05:10:26;6.50;;;3.70;;
41263;SDS011;26998;48.714;9.414;2022-07-17T05:12:53;4.30;;;3.20;;
41263;SDS011;26998;48.714;9.414;2022-07-17T05:15:20;3.58;;;3.28;;
41263;SDS011;26998;48.714;9.414;2022-07-17T05:17:46;3.53;;;3.22;;
41263;SDS011;26998;48.714;9.414;2022-07-17T05:20:13;3.47;;;3.17;;
41263;SDS011;26998;48.714;9.414;2022-07-17T05:22:39;4.55;;;3.30;;
41263;SDS011;26998;48.714;9.414;2022-07-17T05:25:06;4.68;;;3.08;;
41263;SDS011;26998;48.714;9.414;2022-07-17T05:27:33;4.90;;;3.05;;
41263;SDS011;26998;48.714;9.414;2022-07-17T05:29:59;4.05;;;3.15;;
41263;SDS011;26998;48.714;9.414;2022-07-17T05:32:25;4.35;;;3.83;;
41263;SDS011;26998;48.714;9.414;2022-07-17T05:34:52;3.88;;;3.42;;
41263;SDS011;26998;48.714;9.414;2022-07-17T05:37:18;3.40;;;3.10;;
41263;SDS011;26998;48.714;9.414;2022-07-17T05:39:44;5.25;;;3.47;;
41263;SDS011;26998;48.714;9.414;2022-07-17T05:42:11;4.25;;;3.20;;
41263;SDS011;26998;48.714;9.414;2022-07-17T05:44:37;8.07;;;3.55;;
41263;SDS011;26998;48.714;9.414;2022-07-17T05:47:04;4.55;;;4.15;;
41263;SDS011;26998;48.714;9.414;2022-07-17T05:49:30;6.03;;;3.35;;
41263;SDS011;26998;48.714;9.414;2022-07-17T05:51:56;5.70;;;4.15;;
41263;SDS011;26998;48.714;9.414;2022-07-17T05:54:23;3.55;;;3.25;;
41263;SDS011;26998;48.714;9.414;2022-07-17T05:56:49;5.13;;;3.55;;
41263;SDS011;26998;48.714;9.414;2022-07-17T05:59:16;4.47;;;3.60;;
41263;SDS011;26998;48.714;9.414;2022-07-17T06:01:42;5.38;;;3.63;;
41263;SDS011;26998;48.714;9.414;2022-07-17T06:04:09;4.90;;;3.35;;
41263;SDS011;26998;48.714;9.414;2022-07-17T06:06:35;3.55;;;3.10;;
41263;SDS011;26998;48.714;9.414;2022-07-17T06:09:02;4.78;;;3.30;;
41263;SDS011;26998;48.714;9.414;2022-07-17T06:11:28;3.58;;;3.28;;
41263;SDS011;26998;48.714;9.414;2022-07-17T06:14:02;4.45;;;3.00;;
41263;SDS011;26998;48.714;9.414;2022-07-17T06:16:28;3.33;;;3.05;;
41263;SDS011;26998;48.714;9.414;2022-07-17T06:18:55;3.85;;;2.70;;
41263;SDS011;26998;48.714;9.414;2022-07-17T06:21:21;5.65;;;3.58;;
41263;SDS011;26998;48.714;9.414;2022-07-17T06:23:49;3.25;;;3.00;;
41263;SDS011;26998;48.714;9.414;2022-07-17T06:26:16;4.68;;;3.33;;
41263;SDS011;26998;48.714;9.414;2022-07-17T06:28:42;4.13;;;3.30;;
41263;SDS011;26998;48.714;9.414;2022-07-17T06:31:08;7.10;;;3.42;;
41263;SDS011;26998;48.714;9.414;2022-07-17T06:33:35;4.03;;;3.50;;
41263;SDS011;26998;48.714;9.414;2022-07-17T06:36:01;3.45;;;3.15;;
41263;SDS011;26998;48.714;9.414;2022-07-17T06:38:28;5.90;;;3.63;;
41263;SDS011;26998;48.714;9.414;2022-07-17T06:40:54;2.95;;;2.72;;
41263;SDS011;26998;48.714;9.414;2022-07-17T06:43:20;5.03;;;3.45;;
41263;SDS011;26998;48.714;9.414;2022-07-17T06:45:47;5.00;;;3.38;;
41263;SDS011;26998;48.714;9.414;2022-07-17T06:48:13;3.30;;;2.95;;
41263;SDS011;26998;48.714;9.414;2022-07-17T06:50:41;6.15;;;3.35;;
41263;SDS011;26998;48.714;9.414;2022-07-17T06:53:07;3.70;;;3.15;;
41263;SDS011;26998;48.714;9.414;2022-07-17T06:55:33;3.72;;;3.42;;
41263;SDS011;26998;48.714;9.414;2022-07-17T06:58:00;5.55;;;2.92;;
41263;SDS011;26998;48.714;9.414;2022-07-17T07:00:26;4.97;;;3.47;;
41263;SDS011;26998;48.714;9.414;2022-07-17T07:02:53;4.85;;;3.10;;
41263;SDS011;26998;48.714;9.414;2022-07-17T07:05:19;3.95;;;3.22;;
41263;SDS011;26998;48.714;9.414;2022-07-17T07:07:45;5.07;;;3.38;;
41263;SDS011;26998;48.714;9.414;2022-07-17T07:10:12;4.22;;;3.17;;
41263;SDS011;26998;48.714;9.414;2022-07-17T07:12:39;3.75;;;2.97;;
41263;SDS011;26998;48.714;9.414;2022-07-17T07:15:06;3.55;;;3.25;;
41263;SDS011;26998;48.714;9.414;2022-07-17T07:17:38;5.75;;;3.55;;
41263;SDS011;26998;48.714;9.414;2022-07-17T07:20:05;3.92;;;3.30;;
41263;SDS011;26998;48.714;9.414;2022-07-17T07:22:33;3.53;;;3.17;;
41263;SDS011;26998;48.714;9.414;2022-07-17T07:24:59;4.45;;;3.45;;
41263;SDS011;26998;48.714;9.414;2022-07-17T07:27:26;3.45;;;3.00;;
41263;SDS011;26998;48.714;9.414;2022-07-17T07:29:52;4.20;;;3.45;;
41263;SDS011;26998;48.714;9.414;2022-07-17T07:32:19;3.47;;;3.17;;
41263;SDS011;26998;48.714;9.414;2022-07-17T07:34:45;3.28;;;2.92;;
41263;SDS011;26998;48.714;9.414;2022-07-17T07:37:12;3.00;;;2.70;;
41263;SDS011;26998;48.714;9.414;2022-07-17T07:39:38;5.40;;;3.30;;
41263;SDS011;26998;48.714;9.414;2022-07-17T07:42:05;3.47;;;3.17;;
41263;SDS011;26998;48.714;9.414;2022-07-17T07:44:31;4.50;;;3.20;;
41263;SDS011;26998;48.714;9.414;2022-07-17T07:46:58;3.90;;;3.47;;
41263;SDS011;26998;48.714;9.414;2022-07-17T07:49:25;6.40;;;3.40;;
41263;SDS011;26998;48.714;9.414;2022-07-17T07:51:51;4.20;;;3.42;;
41263;SDS011;26998;48.714;9.414;2022-07-17T07:54:28;5.10;;;2.90;;
41263;SDS011;26998;48.714;9.414;2022-07-17T07:56:54;3.22;;;2.92;;
41263;SDS011;26998;48.714;9.414;2022-07-17T07:59:21;3.35;;;2.58;;
41263;SDS011;26998;48.714;9.414;2022-07-17T08:01:47;3.85;;;3.10;;
41263;SDS011;26998;48.714;9.414;2022-07-17T08:04:14;3.40;;;3.10;;
41263;SDS011;26998;48.714;9.414;2022-07-17T08:06:40;3.55;;;2.88;;
41263;SDS011;26998;48.714;9.414;2022-07-17T08:09:07;4.97;;;2.67;;
41263;SDS011;26998;48.714;9.414;2022-07-17T08:11:33;3.28;;;2.55;;
41263;SDS011;26998;48.714;9.414;2022-07-17T08:14:00;4.55;;;2.90;;
41263;SDS011;26998;48.714;9.414;2022-07-17T08:16:38;2.97;;;2.20;;
41263;SDS011;26998;48.714;9.414;2022-07-17T08:19:04;2.53;;;2.33;;
41263;SDS011;26998;48.714;9.414;2022-07-17T08:21:31;3.30;;;2.22;;
41263;SDS011;26998;48.714;9.414;2022-07-17T08:23:57;3.20;;;2.38;;
41263;SDS011;26998;48.714;9.414;2022-07-17T08:26:24;3.80;;;2.50;;
41263;SDS011;26998;48.714;9.414;2022-07-17T08:28:50;2.92;;;2.47;;
41263;SDS011;26998;48.714;9.414;2022-07-17T08:31:17;2.58;;;1.80;;
41263;SDS011;26998;48.714;9.414;2022-07-17T08:33:43;3.95;;;2.53;;
41263;SDS011;26998;48.714;9.414;2022-07-17T08:36:10;3.90;;;2.33;;
41263;SDS011;26998;48.714;9.414;2022-07-17T08:38:36;2.72;;;2.10;;
41263;SDS011;26998;48.714;9.414;2022-07-17T08:41:03;2.53;;;2.08;;
41263;SDS011;26998;48.714;9.414;2022-07-17T08:43:30;2.63;;;1.98;;
41263;SDS011;26998;48.714;9.414;2022-07-17T08:45:56;3.10;;;2.35;;
41263;SDS011;26998;48.714;9.414;2022-07-17T08:48:24;3.97;;;2.10;;
41263;SDS011;26998;48.714;9.414;2022-07-17T08:50:52;3.28;;;2.03;;
41263;SDS011;26998;48.714;9.414;2022-07-17T08:53:19;2.75;;;2.20;;
41263;SDS011;26998;48.714;9.414;2022-07-17T08:55:45;2.47;;;2.10;;
41263;SDS011;26998;48.714;9.414;2022-07-17T08:58:15;3.28;;;2.20;;
41263;SDS011;26998;48.714;9.414;2022-07-17T09:00:42;2.20;;;2.00;;
41263;SDS011;26998;48.714;9.414;2022-07-17T09:03:09;3.75;;;2.20;;
41263;SDS011;26998;48.714;9.414;2022-07-17T09:05:37;2.50;;;2.28;;
41263;SDS011;26998;48.714;9.414;2022-07-17T09:08:05;2.80;;;2.08;;
41263;SDS011;26998;48.714;9.414;2022-07-17T09:10:37;3.10;;;2.20;;
41263;SDS011;26998;48.714;9.414;2022-07-17T09:15:54;4.05;;;2.10;;
41263;SDS011;26998;48.714;9.414;2022-07-17T09:18:24;3.22;;;2.10;;
41263;SDS011;26998;48.714;9.414;2022-07-17T09:20:52;4.78;;;2.00;;
41263;SDS011;26998;48.714;9.414;2022-07-17T09:25:49;5.15;;;2.05;;
41263;SDS011;26998;48.714;9.414;2022-07-17T09:30:46;3.47;;;2.25;;
41263;SDS011;26998;48.714;9.414;2022-07-17T09:33:25;3.13;;;2.00;;
41263;SDS011;26998;48.714;9.414;2022-07-17T09:35:54;2.70;;;2.50;;
41263;SDS011;26998;48.714;9.414;2022-07-17T09:38:33;2.10;;;1.77;;
41263;SDS011;26998;48.714;9.414;2022-07-17T09:41:05;2.22;;;2.03;;
41263;SDS011;26998;48.714;9.414;2022-07-17T09:43:39;3.05;;;1.98;;
41263;SDS011;26998;48.714;9.414;2022-07-17T09:46:29;1.90;;;1.77;;
41263;SDS011;26998;48.714;9.414;2022-07-17T09:49:00;3.05;;;2.13;;
41263;SDS011;26998;48.714;9.414;2022-07-17T09:51:29;5.28;;;1.88;;
41263;SDS011;26998;48.714;9.414;2022-07-17T09:53:58;3.53;;;2.53;;
41263;SDS011;26998;48.714;9.414;2022-07-17T09:56:29;2.38;;;1.95;;
41263;SDS011;26998;48.714;9.414;2022-07-17T09:59:02;1.70;;;1.60;;
41263;SDS011;26998;48.714;9.414;2022-07-17T10:01:32;1.70;;;1.60;;
41263;SDS011;26998;48.714;9.414;2022-07-17T10:03:59;3.20;;;1.90;;
41263;SDS011;26998;48.714;9.414;2022-07-17T10:06:26;3.15;;;1.83;;
41263;SDS011;26998;48.714;9.414;2022-07-17T10:08:54;3.35;;;1.70;;
41263;SDS011;26998;48.714;9.414;2022-07-17T10:11:22;1.98;;;1.77;;
41263;SDS011;26998;48.714;9.414;2022-07-17T10:13:51;2.38;;;1.55;;
41263;SDS011;26998;48.714;9.414;2022-07-17T10:16:23;2.15;;;1.40;;
41263;SDS011;26998;48.714;9.414;2022-07-17T10:18:54;2.13;;;1.40;;
41263;SDS011;26998;48.714;9.414;2022-07-17T10:21:22;1.58;;;1.48;;
41263;SDS011;26998;48.714;9.414;2022-07-17T10:26:30;1.33;;;1.23;;
41263;SDS011;26998;48.714;9.414;2022-07-17T10:28:57;2.35;;;1.40;;
41263;SDS011;26998;48.714;9.414;2022-07-17T10:31:25;4.53;;;1.50;;
41263;SDS011;26998;48.714;9.414;2022-07-17T10:33:55;5.50;;;1.80;;
41263;SDS011;26998;48.714;9.414;2022-07-17T10:36:32;1.98;;;1.88;;
41263;SDS011;26998;48.714;9.414;2022-07-17T10:38:58;1.63;;;1.52;;
41263;SDS011;26998;48.714;9.414;2022-07-17T10:41:35;1.73;;;1.63;;
41263;SDS011;26998;48.714;9.414;2022-07-17T10:44:02;2.78;;;1.67;;
41263;SDS011;26998;48.714;9.414;2022-07-17T10:46:28;1.23;;;1.23;;
41263;SDS011;26998;48.714;9.414;2022-07-17T10:48:55;1.77;;;1.25;;
41263;SDS011;26998;48.714;9.414;2022-07-17T10:51:25;3.05;;;1.75;;
41263;SDS011;26998;48.714;9.414;2022-07-17T10:53:52;1.50;;;1.40;;
41263;SDS011;26998;48.714;9.414;2022-07-17T10:56:22;2.45;;;1.75;;
41263;SDS011;26998;48.714;9.414;2022-07-17T10:58:50;3.20;;;1.60;;
41263;SDS011;26998;48.714;9.414;2022-07-17T11:01:23;2.58;;;1.55;;
41263;SDS011;26998;48.714;9.414;2022-07-17T11:06:27;1.65;;;1.55;;
41263;SDS011;26998;48.714;9.414;2022-07-17T11:08:57;3.75;;;1.85;;
41263;SDS011;26998;48.714;9.414;2022-07-17T11:11:39;4.50;;;1.85;;
41263;SDS011;26998;48.714;9.414;2022-07-17T11:21:48;2.47;;;2.10;;
41263;SDS011;26998;48.714;9.414;2022-07-17T11:24:15;2.22;;;1.60;;
41263;SDS011;26998;48.714;9.414;2022-07-17T11:26:42;3.10;;;1.70;;
41263;SDS011;26998;48.714;9.414;2022-07-17T11:29:10;1.65;;;1.55;;
41263;SDS011;26998;48.714;9.414;2022-07-17T11:31:37;1.77;;;1.67;;
41263;SDS011;26998;48.714;9.414;2022-07-17T11:34:05;2.10;;;1.90;;
41263;SDS011;26998;48.714;9.414;2022-07-17T11:36:33;1.73;;;1.55;;
41263;SDS011;26998;48.714;9.414;2022-07-17T11:39:06;3.40;;;1.70;;
41263;SDS011;26998;48.714;9.414;2022-07-17T11:41:38;1.98;;;1.60;;
41263;SDS011;26998;48.714;9.414;2022-07-17T11:44:10;2.03;;;1.92;;
41263;SDS011;26998;48.714;9.414;2022-07-17T11:46:42;2.65;;;1.30;;
41263;SDS011;26998;48.714;9.414;2022-07-17T11:49:11;1.58;;;1.48;;
41263;SDS011;26998;48.714;9.414;2022-07-17T11:51:49;2.20;;;1.70;;
41263;SDS011;26998;48.714;9.414;2022-07-17T11:54:16;2.42;;;1.63;;
41263;SDS011;26998;48.714;9.414;2022-07-17T11:56:51;3.95;;;1.80;;
41263;SDS011;26998;48.714;9.414;2022-07-17T11:59:29;1.60;;;1.50;;
41263;SDS011;26998;48.714;9.414;2022-07-17T12:02:06;2.22;;;1.70;;
41263;SDS011;26998;48.714;9.414;2022-07-17T12:04:47;4.50;;;1.75;;
41263;SDS011;26998;48.714;9.414;2022-07-17T12:07:22;1.80;;;1.70;;
41263;SDS011;26998;48.714;9.414;2022-07-17T12:09:50;2.72;;;1.95;;
41263;SDS011;26998;48.714;9.414;2022-07-17T12:12:21;4.18;;;1.65;;
41263;SDS011;26998;48.714;9.414;2022-07-17T12:14:52;2.67;;;1.70;;
41263;SDS011;26998;48.714;9.414;2022-07-17T12:17:20;2.35;;;1.70;;
41263;SDS011;26998;48.714;9.414;2022-07-17T12:19:48;1.52;;;1.42;;
41263;SDS011;26998;48.714;9.414;2022-07-17T12:22:14;1.90;;;1.80;;
41263;SDS011;26998;48.714;9.414;2022-07-17T12:24:41;1.70;;;1.60;;
41263;SDS011;26998;48.714;9.414;2022-07-17T12:27:10;1.73;;;1.63;;
41263;SDS011;26998;48.714;9.414;2022-07-17T12:29:41;1.67;;;1.45;;
41263;SDS011;26998;48.714;9.414;2022-07-17T12:32:10;8.38;;;1.90;;
41263;SDS011;26998;48.714;9.414;2022-07-17T12:34:38;1.88;;;1.70;;
41263;SDS011;26998;48.714;9.414;2022-07-17T12:37:06;1.63;;;1.53;;
41263;SDS011;26998;48.714;9.414;2022-07-17T12:39:33;3.83;;;1.80;;
41263;SDS011;26998;48.714;9.414;2022-07-17T12:41:59;1.58;;;1.48;;
41263;SDS011;26998;48.714;9.414;2022-07-17T12:44:26;1.92;;;1.83;;
41263;SDS011;26998;48.714;9.414;2022-07-17T12:46:52;1.70;;;1.60;;
41263;SDS011;26998;48.714;9.414;2022-07-17T12:49:19;2.65;;;1.67;;
41263;SDS011;26998;48.714;9.414;2022-07-17T12:51:45;2.28;;;1.60;;
41263;SDS011;26998;48.714;9.414;2022-07-17T12:54:12;2.10;;;1.70;;
41263;SDS011;26998;48.714;9.414;2022-07-17T12:56:39;3.55;;;2.05;;
41263;SDS011;26998;48.714;9.414;2022-07-17T12:59:05;2.13;;;1.55;;
41263;SDS011;26998;48.714;9.414;2022-07-17T13:01:32;2.65;;;1.65;;
41263;SDS011;26998;48.714;9.414;2022-07-17T13:03:59;1.95;;;1.60;;
41263;SDS011;26998;48.714;9.414;2022-07-17T13:06:25;2.30;;;1.70;;
41263;SDS011;26998;48.714;9.414;2022-07-17T13:08:52;2.92;;;1.60;;
41263;SDS011;26998;48.714;9.414;2022-07-17T13:11:19;2.25;;;1.42;;
41263;SDS011;26998;48.714;9.414;2022-07-17T13:13:46;4.50;;;1.90;;
41263;SDS011;26998;48.714;9.414;2022-07-17T13:16:12;4.32;;;1.80;;
41263;SDS011;26998;48.714;9.414;2022-07-17T13:18:40;2.70;;;1.60;;
41263;SDS011;26998;48.714;9.414;2022-07-17T13:21:07;1.60;;;1.50;;
41263;SDS011;26998;48.714;9.414;2022-07-17T13:23:34;3.28;;;2.33;;
41263;SDS011;26998;48.714;9.414;2022-07-17T13:26:01;1.70;;;1.60;;
41263;SDS011;26998;48.714;9.414;2022-07-17T13:28:28;1.90;;;1.65;;
41263;SDS011;26998;48.714;9.414;2022-07-17T13:30:55;2.70;;;1.80;;
41263;SDS011;26998;48.714;9.414;2022-07-17T13:33:22;2.13;;;1.90;;
41263;SDS011;26998;48.714;9.414;2022-07-17T13:35:49;1.65;;;1.48;;
41263;SDS011;26998;48.714;9.414;2022-07-17T13:38:16;2.45;;;1.42;;
41263;SDS011;26998;48.714;9.414;2022-07-17T13:40:44;2.53;;;1.48;;
41263;SDS011;26998;48.714;9.414;2022-07-17T13:43:11;1.58;;;1.48;;
41263;SDS011;26998;48.714;9.414;2022-07-17T13:45:37;1.63;;;1.52;;
41263;SDS011;26998;48.714;9.414;2022-07-17T13:48:04;1.70;;;1.60;;
41263;SDS011;26998;48.714;9.414;2022-07-17T13:50:31;1.52;;;1.42;;
41263;SDS011;26998;48.714;9.414;2022-07-17T13:52:57;1.38;;;1.27;;
41263;SDS011;26998;48.714;9.414;2022-07-17T13:55:26;1.63;;;1.40;;
41263;SDS011;26998;48.714;9.414;2022-07-17T13:58:13;1.98;;;1.88;;
41263;SDS011;26998;48.714;9.414;2022-07-17T14:00:39;3.90;;;2.05;;
41263;SDS011;26998;48.714;9.414;2022-07-17T14:03:06;1.50;;;1.40;;
41263;SDS011;26998;48.714;9.414;2022-07-17T14:05:33;1.70;;;1.40;;
41263;SDS011;26998;48.714;9.414;2022-07-17T14:08:00;3.63;;;1.55;;
41263;SDS011;26998;48.714;9.414;2022-07-17T14:10:26;1.55;;;1.45;;
41263;SDS011;26998;48.714;9.414;2022-07-17T14:12:53;4.10;;;2.13;;
41263;SDS011;26998;48.714;9.414;2022-07-17T14:15:19;2.33;;;1.73;;
41263;SDS011;26998;48.714;9.414;2022-07-17T14:17:46;1.60;;;1.50;;
41263;SDS011;26998;48.714;9.414;2022-07-17T14:20:12;2.35;;;1.70;;
41263;SDS011;26998;48.714;9.414;2022-07-17T14:22:39;2.35;;;1.40;;
41263;SDS011;26998;48.714;9.414;2022-07-17T14:25:05;1.88;;;1.60;;
41263;SDS011;26998;48.714;9.414;2022-07-17T14:27:33;1.85;;;1.60;;
41263;SDS011;26998;48.714;9.414;2022-07-17T14:29:59;1.73;;;1.63;;
41263;SDS011;26998;48.714;9.414;2022-07-17T14:32:26;1.60;;;1.50;;
41263;SDS011;26998;48.714;9.414;2022-07-17T14:34:52;2.38;;;1.70;;
41263;SDS011;26998;48.714;9.414;2022-07-17T14:37:19;3.45;;;1.75;;
41263;SDS011;26998;48.714;9.414;2022-07-17T14:39:45;1.67;;;1.33;;
41263;SDS011;26998;48.714;9.414;2022-07-17T14:42:11;1.73;;;1.63;;
41263;SDS011;26998;48.714;9.414;2022-07-17T14:44:38;2.50;;;1.80;;
41263;SDS011;26998;48.714;9.414;2022-07-17T14:47:04;1.70;;;1.60;;
41263;SDS011;26998;48.714;9.414;2022-07-17T14:49:31;2.05;;;1.60;;
41263;SDS011;26998;48.714;9.414;2022-07-17T14:51:57;1.50;;;1.40;;
41263;SDS011;26998;48.714;9.414;2022-07-17T14:54:24;1.63;;;1.52;;
41263;SDS011;26998;48.714;9.414;2022-07-17T14:56:50;1.73;;;1.50;;
41263;SDS011;26998;48.714;9.414;2022-07-17T14:59:17;1.58;;;1.40;;
41263;SDS011;26998;48.714;9.414;2022-07-17T15:01:43;1.65;;;1.55;;
41263;SDS011;26998;48.714;9.414;2022-07-17T15:04:10;3.05;;;1.63;;
41263;SDS011;26998;48.714;9.414;2022-07-17T15:06:39;1.63;;;1.52;;
41263;SDS011;26998;48.714;9.414;2022-07-17T15:09:07;2.90;;;1.83;;
41263;SDS011;26998;48.714;9.414;2022-07-17T15:11:34;1.92;;;1.73;;